createdAt,value
2017-01-25T00:00:35.930Z,0
2017-01-25T00:01:49.460Z,0
2017-01-25T00:03:03.185Z,0
2017-01-25T00:04:16.673Z,0
2017-01-25T00:05:30.358Z,0
2017-01-25T00:06:43.896Z,0
2017-01-25T00:07:57.371Z,0
2017-01-25T00:09:11.084Z,0
2017-01-25T00:10:24.612Z,0
2017-01-25T00:11:39.725Z,0
2017-01-25T00:12:53.254Z,0
2017-01-25T00:14:06.699Z,0
2017-01-25T00:15:20.891Z,0
2017-01-25T00:16:35.683Z,0
2017-01-25T00:17:49.506Z,0
2017-01-25T00:19:03.223Z,0
2017-01-25T00:20:16.692Z,0
2017-01-25T00:21:30.579Z,0
2017-01-25T00:22:44.014Z,0
2017-01-25T00:23:57.868Z,0
2017-01-25T00:25:11.409Z,0
2017-01-25T00:26:24.961Z,0
2017-01-25T00:27:39.056Z,0
2017-01-25T00:28:52.502Z,0
2017-01-25T00:30:05.934Z,0
2017-01-25T00:31:19.434Z,0
2017-01-25T00:32:33.013Z,0
2017-01-25T00:33:46.937Z,0
2017-01-25T00:35:00.396Z,0
2017-01-25T00:36:13.892Z,0
2017-01-25T00:37:27.560Z,0
2017-01-25T00:38:40.983Z,0
2017-01-25T00:39:54.929Z,0
2017-01-25T00:41:08.354Z,0
2017-01-25T00:42:21.820Z,0
2017-01-25T00:43:35.307Z,0
2017-01-25T00:44:48.760Z,0
2017-01-25T00:46:02.553Z,0
2017-01-25T00:47:16.385Z,0
2017-01-25T00:48:29.866Z,0
2017-01-25T00:49:43.717Z,0
2017-01-25T00:50:57.150Z,0
2017-01-25T00:52:10.893Z,0
2017-01-25T00:53:24.433Z,0
2017-01-25T00:54:37.883Z,0
2017-01-25T00:55:51.367Z,0
2017-01-25T00:57:04.812Z,0
2017-01-25T00:58:18.575Z,0
2017-01-25T00:59:33.289Z,0
2017-01-25T01:00:46.872Z,0
2017-01-25T01:02:00.287Z,0
2017-01-25T01:03:13.764Z,0
2017-01-25T01:04:28.043Z,0
2017-01-25T01:05:41.490Z,0
2017-01-25T01:06:54.970Z,0
2017-01-25T01:08:08.442Z,0
2017-01-25T01:09:21.991Z,0
2017-01-25T01:10:35.715Z,0
2017-01-25T01:11:49.569Z,0
2017-01-25T01:13:03.428Z,0
2017-01-25T01:14:16.903Z,0
2017-01-25T01:15:30.397Z,0
2017-01-25T01:16:46.290Z,0
2017-01-25T01:18:31.811Z,0
2017-01-25T01:19:45.366Z,0
2017-01-25T01:20:59.260Z,0
2017-01-25T01:22:13.402Z,0
2017-01-25T01:23:27.271Z,0
2017-01-25T01:24:40.810Z,0
2017-01-25T01:25:54.811Z,0
2017-01-25T01:27:08.755Z,0
2017-01-25T01:28:22.480Z,0
2017-01-25T01:29:36.396Z,0
2017-01-25T01:30:49.866Z,0
2017-01-25T01:32:03.400Z,0
2017-01-25T01:33:16.833Z,0
2017-01-25T01:34:30.981Z,0
2017-01-25T01:35:44.503Z,0
2017-01-25T01:36:58.359Z,0
2017-01-25T01:38:12.027Z,0
2017-01-25T01:39:25.560Z,0
2017-01-25T01:40:39.367Z,0
2017-01-25T01:41:52.783Z,0
2017-01-25T01:43:06.224Z,0
2017-01-25T01:44:19.723Z,0
2017-01-25T01:45:33.783Z,0
2017-01-25T01:46:47.568Z,0
2017-01-25T01:48:01.041Z,0
2017-01-25T01:49:17.034Z,0
2017-01-25T01:50:32.632Z,0
2017-01-25T01:51:47.876Z,0
2017-01-25T01:53:02.460Z,0
2017-01-25T01:54:17.132Z,0
2017-01-25T01:55:32.031Z,0
2017-01-25T01:56:51.590Z,0
2017-01-25T01:58:08.832Z,0
2017-01-25T01:59:25.948Z,0
2017-01-25T02:00:41.521Z,0
2017-01-25T02:01:55.501Z,0
2017-01-25T02:03:08.927Z,0
2017-01-25T02:04:22.394Z,0
2017-01-25T02:05:36.096Z,0
2017-01-25T02:06:50.843Z,0
2017-01-25T02:08:04.275Z,0
2017-01-25T02:09:18.278Z,0
2017-01-25T02:10:33.021Z,0
2017-01-25T02:11:47.232Z,0
2017-01-25T02:13:00.659Z,0
2017-01-25T02:14:14.127Z,0
2017-01-25T02:15:27.578Z,0
2017-01-25T02:16:41.048Z,0
2017-01-25T02:17:54.913Z,0
2017-01-25T02:19:08.356Z,0
2017-01-25T02:20:22.195Z,0
2017-01-25T02:21:36.038Z,0
2017-01-25T02:22:49.602Z,0
2017-01-25T02:24:03.299Z,0
2017-01-25T02:25:17.338Z,0
2017-01-25T02:26:30.790Z,0
2017-01-25T02:27:44.297Z,0
2017-01-25T02:28:57.830Z,0
2017-01-25T02:30:11.571Z,0
2017-01-25T02:31:25.015Z,0
2017-01-25T02:32:38.809Z,0
2017-01-25T02:33:54.857Z,0
2017-01-25T02:35:08.269Z,0
2017-01-25T02:36:21.942Z,0
2017-01-25T02:37:35.356Z,0
2017-01-25T02:38:48.852Z,0
2017-01-25T02:40:02.668Z,0
2017-01-25T02:41:16.098Z,0
2017-01-25T02:42:29.814Z,0
2017-01-25T02:43:43.213Z,0
2017-01-25T02:44:56.782Z,0
2017-01-25T02:46:10.227Z,0
2017-01-25T02:47:24.039Z,0
2017-01-25T02:48:37.763Z,0
2017-01-25T02:49:51.240Z,0
2017-01-25T02:51:04.868Z,0
2017-01-25T02:52:18.287Z,0
2017-01-25T02:53:31.764Z,0
2017-01-25T02:54:45.595Z,0
2017-01-25T02:55:58.999Z,0
2017-01-25T02:57:12.443Z,0
2017-01-25T02:58:25.876Z,0
2017-01-25T02:59:39.743Z,0
2017-01-25T03:00:54.704Z,0
2017-01-25T03:02:08.158Z,0
2017-01-25T03:03:21.590Z,0
2017-01-25T03:04:35.033Z,0
2017-01-25T03:05:48.573Z,0
2017-01-25T03:07:02.291Z,0
2017-01-25T03:08:15.686Z,0
2017-01-25T03:09:29.521Z,0
2017-01-25T03:10:43.015Z,0
2017-01-25T03:11:56.448Z,0
2017-01-25T03:13:10.169Z,0
2017-01-25T03:14:23.603Z,0
2017-01-25T03:15:37.009Z,0
2017-01-25T03:16:50.452Z,0
2017-01-25T03:18:03.967Z,0
2017-01-25T03:19:17.671Z,0
2017-01-25T03:20:31.085Z,0
2017-01-25T03:21:46.386Z,0
2017-01-25T03:22:59.882Z,0
2017-01-25T03:24:13.394Z,0
2017-01-25T03:25:27.220Z,0
2017-01-25T03:26:41.123Z,0
2017-01-25T03:27:54.508Z,0
2017-01-25T03:29:07.930Z,0
2017-01-25T03:30:21.387Z,0
2017-01-25T03:31:35.091Z,0
2017-01-25T03:32:48.710Z,0
2017-01-25T03:34:02.140Z,0
2017-01-25T03:35:15.545Z,0
2017-01-25T03:36:28.941Z,0
2017-01-25T03:37:42.802Z,0
2017-01-25T03:38:56.220Z,0
2017-01-25T03:40:09.628Z,0
2017-01-25T03:41:23.054Z,0
2017-01-25T03:42:36.529Z,0
2017-01-25T03:43:50.223Z,0
2017-01-25T03:45:03.675Z,0
2017-01-25T03:46:17.236Z,0
2017-01-25T03:47:31.088Z,0
2017-01-25T03:48:44.603Z,0
2017-01-25T03:50:00.479Z,0
2017-01-25T03:51:13.908Z,0
2017-01-25T03:52:27.406Z,0
2017-01-25T03:53:40.908Z,0
2017-01-25T03:54:54.350Z,0
2017-01-25T03:56:08.058Z,0
2017-01-25T03:57:22.055Z,0
2017-01-25T03:58:35.604Z,0
2017-01-25T03:59:49.039Z,0
2017-01-25T04:01:02.530Z,0
2017-01-25T04:02:16.218Z,0
2017-01-25T04:03:29.648Z,0
2017-01-25T04:04:43.143Z,0
2017-01-25T04:05:56.655Z,0
2017-01-25T04:07:10.083Z,0
2017-01-25T04:08:23.910Z,0
2017-01-25T04:09:37.474Z,0
2017-01-25T04:10:50.887Z,0
2017-01-25T04:12:04.337Z,0
2017-01-25T04:13:17.826Z,0
2017-01-25T04:14:32.002Z,0
2017-01-25T04:15:45.455Z,0
2017-01-25T04:16:58.916Z,0
2017-01-25T04:18:12.396Z,0
2017-01-25T04:19:25.987Z,0
2017-01-25T04:20:39.776Z,0
2017-01-25T04:21:53.202Z,0
2017-01-25T04:23:06.634Z,0
2017-01-25T04:24:20.043Z,0
2017-01-25T04:25:33.812Z,0
2017-01-25T04:26:47.514Z,0
2017-01-25T04:28:00.952Z,0
2017-01-25T04:29:14.351Z,0
2017-01-25T04:30:27.896Z,0
2017-01-25T04:31:41.806Z,0
2017-01-25T04:32:55.923Z,0
2017-01-25T04:34:09.422Z,0
2017-01-25T04:35:22.838Z,0
2017-01-25T04:36:36.315Z,0
2017-01-25T04:37:49.749Z,0
2017-01-25T04:39:03.490Z,0
2017-01-25T04:40:17.544Z,0
2017-01-25T04:41:31.117Z,0
2017-01-25T04:42:44.537Z,0
2017-01-25T04:43:57.935Z,0
2017-01-25T04:45:12.029Z,0
2017-01-25T04:46:25.517Z,0
2017-01-25T04:47:38.919Z,0
2017-01-25T04:48:52.344Z,0
2017-01-25T04:50:05.762Z,0
2017-01-25T04:51:19.475Z,0
2017-01-25T04:52:34.224Z,0
2017-01-25T04:53:47.623Z,0
2017-01-25T04:55:01.074Z,0
2017-01-25T04:56:14.499Z,0
2017-01-25T04:57:28.279Z,0
2017-01-25T04:58:42.308Z,0
2017-01-25T04:59:55.723Z,0
2017-01-25T05:01:09.265Z,0
2017-01-25T05:02:24.395Z,0
2017-01-25T05:03:38.094Z,0
2017-01-25T05:04:51.933Z,0
2017-01-25T05:06:07.556Z,0
2017-01-25T05:07:21.837Z,0
2017-01-25T05:08:35.384Z,0
2017-01-25T05:09:49.708Z,0
2017-01-25T05:11:03.547Z,0
2017-01-25T05:12:17.184Z,0
2017-01-25T05:13:30.892Z,0
2017-01-25T05:14:44.670Z,0
2017-01-25T05:15:58.445Z,0
2017-01-25T05:17:12.071Z,0
2017-01-25T05:18:26.675Z,0
2017-01-25T05:19:40.332Z,0
2017-01-25T05:20:55.058Z,0
2017-01-25T05:22:10.299Z,0
2017-01-25T05:23:23.777Z,0
2017-01-25T05:24:38.131Z,0
2017-01-25T05:25:52.495Z,0
2017-01-25T05:27:06.074Z,0
2017-01-25T05:28:21.981Z,0
2017-01-25T05:29:35.557Z,0
2017-01-25T05:30:50.110Z,0
2017-01-25T05:32:08.112Z,0
2017-01-25T05:33:24.839Z,0
2017-01-25T05:34:42.205Z,0
2017-01-25T05:35:58.952Z,0
2017-01-25T05:37:15.124Z,0
2017-01-25T05:38:29.051Z,0
2017-01-25T05:39:42.826Z,0
2017-01-25T05:40:58.708Z,0
2017-01-25T05:42:13.162Z,0
2017-01-25T05:43:28.118Z,0
2017-01-25T05:44:42.654Z,0
2017-01-25T05:45:57.085Z,0
2017-01-25T05:47:11.115Z,0
2017-01-25T05:48:24.884Z,0
2017-01-25T05:49:38.523Z,0
2017-01-25T05:50:52.321Z,0
2017-01-25T05:52:05.991Z,0
2017-01-25T05:53:19.639Z,0
2017-01-25T05:54:34.807Z,0
2017-01-25T05:55:49.133Z,0
2017-01-25T05:57:02.731Z,0
2017-01-25T05:58:17.455Z,0
2017-01-25T05:59:32.762Z,0
2017-01-25T06:00:46.539Z,0
2017-01-25T06:02:00.066Z,0
2017-01-25T06:03:13.602Z,0
2017-01-25T06:04:27.071Z,0
2017-01-25T06:05:41.621Z,0
2017-01-25T06:06:55.100Z,0
2017-01-25T06:08:08.715Z,0
2017-01-25T06:09:22.459Z,0
2017-01-25T06:10:35.936Z,0
2017-01-25T06:11:49.796Z,0
2017-01-25T06:13:03.347Z,0
2017-01-25T06:14:16.882Z,0
2017-01-25T06:15:30.602Z,0
2017-01-25T06:17:16.463Z,0
2017-01-25T06:18:30.838Z,0
2017-01-25T06:19:44.523Z,0
2017-01-25T06:20:58.535Z,0
2017-01-25T06:22:12.052Z,0
2017-01-25T06:23:27.901Z,0
2017-01-25T06:24:42.283Z,0
2017-01-25T06:25:55.901Z,0
2017-01-25T06:27:09.567Z,0
2017-01-25T06:28:23.291Z,0
2017-01-25T06:29:36.984Z,0
2017-01-25T06:30:52.180Z,0
2017-01-25T06:32:05.846Z,0
2017-01-25T06:33:19.335Z,0
2017-01-25T06:34:32.875Z,0
2017-01-25T06:35:46.388Z,0
2017-01-25T06:37:00.550Z,0
2017-01-25T06:38:14.212Z,0
2017-01-25T06:39:27.817Z,0
2017-01-25T06:40:41.314Z,0
2017-01-25T06:41:55.554Z,0
2017-01-25T06:43:09.791Z,0
2017-01-25T06:44:23.282Z,0
2017-01-25T06:45:36.849Z,0
2017-01-25T06:46:50.919Z,0
2017-01-25T06:48:36.867Z,0
2017-01-25T06:49:50.646Z,0
2017-01-25T06:51:04.145Z,0
2017-01-25T06:52:17.702Z,0
2017-01-25T06:53:31.355Z,0
2017-01-25T06:54:45.148Z,0
2017-01-25T06:55:59.072Z,0
2017-01-25T06:57:12.611Z,0
2017-01-25T06:58:26.081Z,0
2017-01-25T06:59:39.591Z,0
2017-01-25T07:00:53.092Z,0
2017-01-25T07:02:07.415Z,0
2017-01-25T07:03:22.174Z,0
2017-01-25T07:04:35.729Z,0
2017-01-25T07:05:49.239Z,0
2017-01-25T07:07:02.898Z,0
2017-01-25T07:08:16.535Z,0
2017-01-25T07:09:29.988Z,0
2017-01-25T07:10:43.949Z,0
2017-01-25T07:11:57.558Z,0
2017-01-25T07:13:11.599Z,0
2017-01-25T07:14:25.327Z,0
2017-01-25T07:15:39.037Z,0
2017-01-25T07:16:52.613Z,0
2017-01-25T07:18:06.520Z,0
2017-01-25T07:19:20.029Z,0
2017-01-25T07:20:33.861Z,0
2017-01-25T07:21:47.399Z,0
2017-01-25T07:23:00.798Z,0
2017-01-25T07:24:14.311Z,0
2017-01-25T07:25:27.776Z,0
2017-01-25T07:26:41.994Z,0
2017-01-25T07:27:55.764Z,0
2017-01-25T07:29:10.619Z,0
2017-01-25T07:30:24.212Z,0
2017-01-25T07:31:37.817Z,0
2017-01-25T07:32:51.783Z,0
2017-01-25T07:34:06.679Z,5
2017-01-25T07:35:20.142Z,5
2017-01-25T07:36:33.594Z,5
2017-01-25T07:37:47.134Z,5
2017-01-25T07:39:00.964Z,5
2017-01-25T07:40:16.824Z,5
2017-01-25T07:41:30.402Z,5
2017-01-25T07:42:43.916Z,5
2017-01-25T07:43:57.506Z,5
2017-01-25T07:45:11.412Z,5
2017-01-25T07:46:25.037Z,5
2017-01-25T07:47:38.508Z,5
2017-01-25T07:48:51.955Z,5
2017-01-25T07:50:05.403Z,5
2017-01-25T07:51:19.183Z,5
2017-01-25T07:52:32.648Z,5
2017-01-25T07:53:47.041Z,5
2017-01-25T07:55:00.487Z,5
2017-01-25T07:56:14.393Z,10
2017-01-25T07:57:28.148Z,10
2017-01-25T07:58:41.751Z,10
2017-01-25T07:59:55.199Z,10
2017-01-25T08:01:08.817Z,10
2017-01-25T08:02:22.272Z,10
2017-01-25T08:03:36.014Z,10
2017-01-25T08:04:49.584Z,10
2017-01-25T08:06:04.825Z,10
2017-01-25T08:07:18.458Z,10
2017-01-25T08:08:31.926Z,10
2017-01-25T08:09:45.720Z,10
2017-01-25T08:10:59.930Z,10
2017-01-25T08:12:13.438Z,10
2017-01-25T08:13:27.255Z,10
2017-01-25T08:14:42.522Z,10
2017-01-25T08:15:56.267Z,15
2017-01-25T08:17:09.797Z,15
2017-01-25T08:18:23.674Z,15
2017-01-25T08:19:37.140Z,15
2017-01-25T08:20:50.645Z,15
2017-01-25T08:22:05.299Z,15
2017-01-25T08:27:49.764Z,15
2017-01-25T08:29:03.384Z,15
2017-01-25T08:30:17.044Z,15
2017-01-25T08:31:30.889Z,15
2017-01-25T08:32:44.864Z,15
2017-01-25T08:33:58.672Z,20
2017-01-25T08:35:12.120Z,20
2017-01-25T08:36:26.020Z,20
2017-01-25T08:37:39.536Z,20
2017-01-25T08:38:53.156Z,20
2017-01-25T08:40:06.984Z,20
2017-01-25T08:41:20.518Z,20
2017-01-25T08:42:34.233Z,20
2017-01-25T08:43:47.724Z,20
2017-01-25T08:45:01.238Z,20
2017-01-25T08:46:15.577Z,20
2017-01-25T08:47:29.112Z,25
2017-01-25T08:48:43.221Z,25
2017-01-25T08:49:56.699Z,20
2017-01-25T08:51:10.224Z,20
2017-01-25T08:52:24.857Z,20
2017-01-25T08:53:38.927Z,20
2017-01-25T08:54:52.418Z,20
2017-01-25T08:56:05.899Z,25
2017-01-25T08:57:19.451Z,25
2017-01-25T08:58:34.294Z,25
2017-01-25T08:59:50.064Z,25
2017-01-25T09:01:03.657Z,25
2017-01-25T09:02:17.244Z,25
2017-01-25T09:03:30.900Z,25
2017-01-25T09:04:44.844Z,25
2017-01-25T09:05:58.593Z,25
2017-01-25T09:07:12.193Z,25
2017-01-25T09:08:25.835Z,30
2017-01-25T09:09:40.334Z,25
2017-01-25T09:10:55.082Z,25
2017-01-25T09:12:08.706Z,25
2017-01-25T09:13:22.330Z,25
2017-01-25T09:14:36.420Z,30
2017-01-25T09:15:50.227Z,30
2017-01-25T09:17:04.333Z,30
2017-01-25T09:18:18.053Z,30
2017-01-25T09:19:31.698Z,30
2017-01-25T09:20:46.375Z,30
2017-01-25T09:21:59.966Z,30
2017-01-25T09:23:14.337Z,30
2017-01-25T09:24:27.917Z,30
2017-01-25T09:25:41.611Z,30
2017-01-25T09:26:55.382Z,30
2017-01-25T09:28:08.955Z,30
2017-01-25T09:29:23.271Z,30
2017-01-25T09:30:36.965Z,30
2017-01-25T09:31:50.685Z,30
2017-01-25T09:33:04.291Z,35
2017-01-25T09:34:17.995Z,35
2017-01-25T09:35:31.939Z,35
2017-01-25T09:39:52.465Z,35
2017-01-25T09:41:06.414Z,35
2017-01-25T09:42:19.941Z,30
2017-01-25T09:43:33.452Z,30
2017-01-25T09:44:46.922Z,35
2017-01-25T09:46:00.507Z,35
2017-01-25T09:47:14.387Z,35
2017-01-25T09:48:28.023Z,30
2017-01-25T09:49:41.546Z,35
2017-01-25T09:50:55.043Z,35
2017-01-25T09:52:09.859Z,35
2017-01-25T09:53:24.700Z,35
2017-01-25T09:54:38.954Z,35
2017-01-25T09:55:52.624Z,35
2017-01-25T09:57:07.199Z,35
2017-01-25T09:58:20.922Z,35
2017-01-25T09:59:34.755Z,40
2017-01-25T10:00:49.422Z,40
2017-01-25T10:02:03.034Z,40
2017-01-25T10:03:17.122Z,40
2017-01-25T10:04:31.614Z,40
2017-01-25T10:05:45.784Z,40
2017-01-25T10:06:59.919Z,35
2017-01-25T10:08:13.593Z,40
2017-01-25T10:09:27.791Z,45
2017-01-25T10:10:41.476Z,45
2017-01-25T10:11:55.629Z,50
2017-01-25T10:13:10.294Z,45
2017-01-25T10:14:24.792Z,45
2017-01-25T10:15:38.408Z,45
2017-01-25T10:16:52.253Z,40
2017-01-25T10:18:07.021Z,40
2017-01-25T10:19:24.081Z,40
2017-01-25T10:20:37.727Z,40
2017-01-25T10:21:51.619Z,40
2017-01-25T10:23:07.163Z,40
2017-01-25T10:24:21.240Z,45
2017-01-25T10:25:34.912Z,45
2017-01-25T10:26:48.839Z,45
2017-01-25T10:28:03.778Z,45
2017-01-25T10:29:17.315Z,45
2017-01-25T10:39:45.497Z,45
2017-01-25T10:40:59.034Z,45
2017-01-25T10:42:12.728Z,45
2017-01-25T10:44:17.559Z,45
2017-01-25T10:45:31.575Z,50
2017-01-25T10:46:45.130Z,50
2017-01-25T10:47:58.693Z,55
2017-01-25T10:49:12.475Z,50
2017-01-25T10:50:26.049Z,50
2017-01-25T10:51:39.558Z,45
2017-01-25T10:52:53.050Z,45
2017-01-25T10:54:06.564Z,45
2017-01-25T10:55:20.543Z,50
2017-01-25T10:56:34.095Z,50
2017-01-25T10:57:47.585Z,50
2017-01-25T10:59:01.660Z,50
2017-01-25T11:00:15.317Z,50
2017-01-25T11:01:30.475Z,55
2017-01-25T11:02:44.272Z,60
2017-01-25T11:03:57.748Z,60
2017-01-25T11:05:11.182Z,55
2017-01-25T11:06:25.266Z,55
2017-01-25T11:07:39.040Z,50
2017-01-25T11:08:52.623Z,55
2017-01-25T11:10:06.079Z,55
2017-01-25T11:11:19.911Z,55
2017-01-25T11:12:33.444Z,55
2017-01-25T11:13:47.210Z,60
2017-01-25T11:15:00.704Z,60
2017-01-25T11:16:14.237Z,60
2017-01-25T11:17:27.753Z,65
2017-01-25T11:18:41.595Z,60
2017-01-25T11:19:55.351Z,60
2017-01-25T11:21:08.805Z,65
2017-01-25T11:22:22.314Z,65
2017-01-25T11:23:35.766Z,65
2017-01-25T11:24:49.230Z,65
2017-01-25T11:26:02.945Z,65
2017-01-25T11:27:16.428Z,60
2017-01-25T11:28:29.930Z,60
2017-01-25T11:29:43.367Z,60
2017-01-25T11:30:56.806Z,60
2017-01-25T11:32:10.574Z,60
2017-01-25T11:33:24.050Z,60
2017-01-25T11:34:37.543Z,60
2017-01-25T11:35:51.015Z,65
2017-01-25T11:37:04.485Z,65
2017-01-25T11:38:18.263Z,65
2017-01-25T11:39:31.770Z,65
2017-01-25T11:40:45.226Z,65
2017-01-25T11:41:59.943Z,65
2017-01-25T11:43:15.680Z,65
2017-01-25T11:44:29.448Z,65
2017-01-25T11:45:42.877Z,65
2017-01-25T11:46:56.398Z,70
2017-01-25T11:48:10.031Z,75
2017-01-25T11:49:24.827Z,75
2017-01-25T11:50:38.861Z,70
2017-01-25T11:51:52.826Z,65
2017-01-25T11:53:06.260Z,65
2017-01-25T11:54:19.936Z,60
2017-01-25T11:55:34.600Z,60
2017-01-25T11:56:48.418Z,60
2017-01-25T11:58:01.870Z,60
2017-01-25T11:59:15.392Z,60
2017-01-25T12:01:00.900Z,60
2017-01-25T12:02:15.849Z,55
2017-01-25T12:03:29.530Z,55
2017-01-25T12:04:43.090Z,55
2017-01-25T12:05:56.658Z,55
2017-01-25T12:07:10.559Z,55
2017-01-25T12:08:24.359Z,55
2017-01-25T12:09:37.897Z,55
2017-01-25T12:10:51.876Z,60
2017-01-25T12:12:05.566Z,60
2017-01-25T12:13:19.065Z,60
2017-01-25T12:14:32.893Z,55
2017-01-25T12:15:46.322Z,55
2017-01-25T12:16:59.803Z,55
2017-01-25T12:18:13.424Z,55
2017-01-25T12:19:27.450Z,55
2017-01-25T12:20:41.384Z,50
2017-01-25T12:21:54.964Z,50
2017-01-25T12:23:08.472Z,55
2017-01-25T12:24:22.023Z,50
2017-01-25T12:25:35.683Z,50
2017-01-25T12:26:49.514Z,50
2017-01-25T12:28:03.052Z,55
2017-01-25T12:29:16.715Z,55
2017-01-25T12:30:30.391Z,55
2017-01-25T12:31:44.521Z,55
2017-01-25T12:32:58.824Z,55
2017-01-25T12:34:12.872Z,55
2017-01-25T12:35:26.500Z,55
2017-01-25T12:36:40.176Z,60
2017-01-25T12:37:53.824Z,60
2017-01-25T12:39:07.553Z,60
2017-01-25T12:40:20.966Z,60
2017-01-25T12:41:34.475Z,60
2017-01-25T12:42:47.960Z,60
2017-01-25T12:44:01.443Z,60
2017-01-25T12:45:14.879Z,60
2017-01-25T12:46:29.269Z,55
2017-01-25T12:47:42.721Z,55
2017-01-25T12:48:56.168Z,60
2017-01-25T12:50:09.632Z,60
2017-01-25T12:51:23.341Z,60
2017-01-25T12:52:36.838Z,60
2017-01-25T12:53:53.739Z,60
2017-01-25T12:55:51.962Z,60
2017-01-25T12:57:05.745Z,60
2017-01-25T12:58:19.304Z,60
2017-01-25T12:59:33.185Z,55
2017-01-25T13:00:48.907Z,55
2017-01-25T13:02:02.377Z,55
2017-01-25T13:03:16.561Z,55
2017-01-25T13:04:30.008Z,55
2017-01-25T13:05:43.509Z,55
2017-01-25T13:06:56.957Z,55
2017-01-25T13:08:11.694Z,55
2017-01-25T13:09:25.448Z,60
2017-01-25T13:10:38.953Z,60
2017-01-25T13:11:52.428Z,65
2017-01-25T13:13:05.849Z,65
2017-01-25T13:14:19.352Z,65
2017-01-25T13:15:33.116Z,60
2017-01-25T13:16:46.549Z,60
2017-01-25T13:18:00.018Z,60
2017-01-25T13:19:13.567Z,65
2017-01-25T13:20:27.052Z,60
2017-01-25T13:21:40.843Z,60
2017-01-25T13:22:54.314Z,60
2017-01-25T13:24:07.792Z,55
2017-01-25T13:25:21.313Z,55
2017-01-25T13:26:34.865Z,55
2017-01-25T13:27:48.637Z,55
2017-01-25T13:29:02.072Z,55
2017-01-25T13:30:16.854Z,55
2017-01-25T13:31:30.535Z,50
2017-01-25T13:32:44.059Z,50
2017-01-25T13:33:57.856Z,50
2017-01-25T13:35:12.542Z,50
2017-01-25T13:36:25.971Z,50
2017-01-25T13:37:39.567Z,50
2017-01-25T13:38:53.043Z,50
2017-01-25T13:40:06.849Z,50
2017-01-25T13:41:20.389Z,50
2017-01-25T13:42:34.286Z,50
2017-01-25T13:43:47.944Z,50
2017-01-25T13:45:01.431Z,50
2017-01-25T13:46:21.864Z,45
2017-01-25T13:47:35.280Z,45
2017-01-25T13:48:48.715Z,45
2017-01-25T13:50:02.154Z,45
2017-01-25T13:51:15.645Z,45
2017-01-25T13:52:29.498Z,45
2017-01-25T13:53:42.915Z,45
2017-01-25T13:54:56.415Z,45
2017-01-25T13:56:11.618Z,45
2017-01-25T13:57:25.031Z,40
2017-01-25T13:58:39.454Z,40
2017-01-25T13:59:52.918Z,40
2017-01-25T14:01:06.609Z,40
2017-01-25T14:02:20.085Z,40
2017-01-25T14:03:33.529Z,40
2017-01-25T14:04:47.745Z,35
2017-01-25T14:06:01.628Z,35
2017-01-25T14:07:15.181Z,35
2017-01-25T14:08:28.628Z,35
2017-01-25T14:09:42.088Z,35
2017-01-25T14:10:55.799Z,35
2017-01-25T14:12:09.329Z,35
2017-01-25T14:13:22.787Z,35
2017-01-25T14:14:36.290Z,35
2017-01-25T14:15:49.750Z,35
2017-01-25T14:17:05.760Z,30
2017-01-25T14:18:19.444Z,30
2017-01-25T14:19:32.914Z,30
2017-01-25T14:20:46.621Z,30
2017-01-25T14:22:00.092Z,30
2017-01-25T14:23:14.347Z,30
2017-01-25T14:24:30.812Z,30
2017-01-25T14:25:57.034Z,30
2017-01-25T14:27:10.463Z,30
2017-01-25T14:28:24.251Z,30
2017-01-25T14:29:37.744Z,30
2017-01-25T14:30:51.174Z,30
2017-01-25T14:32:04.676Z,30
2017-01-25T14:33:18.224Z,30
2017-01-25T14:34:31.968Z,25
2017-01-25T14:35:45.621Z,25
2017-01-25T14:36:59.513Z,25
2017-01-25T14:38:13.032Z,25
2017-01-25T14:39:26.970Z,25
2017-01-25T14:40:40.693Z,25
2017-01-25T14:41:54.104Z,25
2017-01-25T14:43:07.607Z,25
2017-01-25T14:44:21.591Z,25
2017-01-25T14:45:35.051Z,25
2017-01-25T14:46:48.842Z,20
2017-01-25T14:48:02.351Z,20
2017-01-25T14:49:15.825Z,20
2017-01-25T14:50:29.330Z,20
2017-01-25T14:51:42.798Z,20
2017-01-25T14:52:56.617Z,20
2017-01-25T14:54:10.104Z,20
2017-01-25T14:55:23.645Z,20
2017-01-25T14:56:37.254Z,20
2017-01-25T14:57:50.738Z,20
2017-01-25T14:59:04.775Z,20
2017-01-25T15:00:19.514Z,20
2017-01-25T15:01:33.430Z,20
2017-01-25T15:02:47.385Z,20
2017-01-25T15:04:00.914Z,20
2017-01-25T15:05:14.703Z,20
2017-01-25T15:06:28.188Z,15
2017-01-25T15:07:41.694Z,15
2017-01-25T15:08:55.650Z,15
2017-01-25T15:10:09.210Z,15
2017-01-25T15:11:22.961Z,15
2017-01-25T15:12:36.411Z,15
2017-01-25T15:13:49.913Z,15
2017-01-25T15:15:03.425Z,15
2017-01-25T15:16:16.966Z,15
2017-01-25T15:17:30.803Z,15
2017-01-25T15:18:44.221Z,10
2017-01-25T15:19:57.781Z,10
2017-01-25T15:21:11.379Z,10
2017-01-25T15:22:24.973Z,10
2017-01-25T15:23:38.745Z,10
2017-01-25T15:24:52.290Z,10
2017-01-25T15:26:05.766Z,10
2017-01-25T15:27:20.580Z,10
2017-01-25T15:28:34.081Z,10
2017-01-25T15:29:47.974Z,10
2017-01-25T15:31:01.863Z,10
2017-01-25T15:32:15.416Z,10
2017-01-25T15:33:31.051Z,5
2017-01-25T15:34:44.576Z,5
2017-01-25T15:35:58.047Z,5
2017-01-25T15:37:11.606Z,5
2017-01-25T15:38:25.061Z,5
2017-01-25T15:39:38.515Z,5
2017-01-25T15:40:52.135Z,5
2017-01-25T15:42:06.448Z,5
2017-01-25T15:43:20.003Z,5
2017-01-25T15:44:34.364Z,5
2017-01-25T15:45:47.874Z,5
2017-01-25T15:47:01.735Z,5
2017-01-25T15:48:15.515Z,5
2017-01-25T15:49:29.026Z,5
2017-01-25T15:50:43.026Z,5
2017-01-25T15:51:56.681Z,5
2017-01-25T15:53:10.265Z,5
2017-01-25T15:54:24.206Z,0
2017-01-25T15:55:39.102Z,0
2017-01-25T15:56:53.275Z,0
2017-01-25T15:58:06.909Z,0
2017-01-25T15:59:20.633Z,0
2017-01-25T16:00:35.398Z,0
2017-01-25T16:01:48.871Z,0
2017-01-25T16:03:02.398Z,0
2017-01-25T16:04:16.027Z,0
2017-01-25T16:05:29.613Z,0
2017-01-25T16:06:43.542Z,0
2017-01-25T16:07:57.538Z,0
2017-01-25T16:09:11.223Z,0
2017-01-25T16:10:25.163Z,0
2017-01-25T16:11:38.741Z,0
2017-01-25T16:12:52.638Z,0
2017-01-25T16:14:07.949Z,0
2017-01-25T16:15:21.496Z,0
2017-01-25T16:16:35.335Z,0
2017-01-25T16:17:49.815Z,0
2017-01-25T16:19:04.966Z,0
2017-01-25T16:20:19.856Z,0
2017-01-25T16:21:33.528Z,0
2017-01-25T16:22:47.567Z,0
2017-01-25T16:24:01.054Z,0
2017-01-25T16:25:14.915Z,0
2017-01-25T16:26:28.618Z,0
2017-01-25T16:27:42.172Z,0
2017-01-25T16:28:55.965Z,0
2017-01-25T16:30:11.055Z,0
2017-01-25T16:31:25.353Z,0
2017-01-25T16:32:38.940Z,0
2017-01-25T16:33:52.739Z,0
2017-01-25T16:35:06.256Z,0
2017-01-25T16:36:19.778Z,0
2017-01-25T16:37:34.283Z,0
2017-01-25T16:38:47.737Z,0
2017-01-25T16:40:01.231Z,0
2017-01-25T16:41:15.300Z,0
2017-01-25T16:42:28.922Z,0
2017-01-25T16:43:42.768Z,0
2017-01-25T16:44:57.106Z,0
2017-01-25T16:46:11.175Z,0
2017-01-25T16:47:24.668Z,0
2017-01-25T16:48:38.811Z,0
2017-01-25T16:49:54.907Z,0
2017-01-25T16:51:09.909Z,0
2017-01-25T16:52:23.517Z,0
2017-01-25T16:53:39.131Z,0
2017-01-25T16:54:52.870Z,0
2017-01-25T16:56:06.820Z,0
2017-01-25T16:57:21.046Z,0
2017-01-25T16:58:35.841Z,0
2017-01-25T16:59:50.400Z,0
2017-01-25T17:01:03.852Z,0
2017-01-25T17:02:17.828Z,0
2017-01-25T17:03:31.778Z,0
2017-01-25T17:04:45.429Z,0
2017-01-25T17:05:59.541Z,0
2017-01-25T17:07:13.083Z,0
2017-01-25T17:08:26.927Z,0
2017-01-25T17:09:40.522Z,0
2017-01-25T17:10:54.076Z,0
2017-01-25T17:12:07.754Z,0
2017-01-25T17:13:21.623Z,0
2017-01-25T17:14:35.390Z,0
2017-01-25T17:15:48.867Z,0
2017-01-25T17:17:02.941Z,0
2017-01-25T17:18:17.746Z,0
2017-01-25T17:19:31.245Z,0
2017-01-25T17:20:45.091Z,0
2017-01-25T17:21:58.622Z,0
2017-01-25T17:23:14.030Z,0
2017-01-25T17:24:27.650Z,0
2017-01-25T17:25:41.119Z,0
2017-01-25T17:26:54.994Z,0
2017-01-25T17:28:10.212Z,0
2017-01-25T17:29:24.632Z,0
2017-01-25T17:30:38.117Z,0
2017-01-25T17:31:51.639Z,0
2017-01-25T17:33:05.629Z,0
2017-01-25T17:34:19.205Z,0
2017-01-25T17:35:32.802Z,0
2017-01-25T17:36:47.255Z,0
2017-01-25T17:38:01.129Z,0
2017-01-25T17:39:15.340Z,0
2017-01-25T17:40:29.700Z,0
2017-01-25T17:41:45.751Z,0
2017-01-25T17:42:59.982Z,0
2017-01-25T17:44:15.642Z,0
2017-01-25T17:45:30.189Z,0
2017-01-25T17:46:43.993Z,0
2017-01-25T17:47:57.923Z,0
2017-01-25T17:49:11.681Z,0
2017-01-25T17:50:25.414Z,0
2017-01-25T17:51:39.671Z,0
2017-01-25T17:52:53.558Z,0
2017-01-25T17:54:07.113Z,0
2017-01-25T17:55:21.213Z,0
2017-01-25T17:56:34.779Z,0
2017-01-25T17:57:48.706Z,0
2017-01-25T17:59:02.911Z,0
2017-01-25T18:00:17.939Z,0
2017-01-25T18:01:31.857Z,0
2017-01-25T18:02:45.384Z,0
2017-01-25T18:03:59.747Z,0
2017-01-25T18:05:13.331Z,0
2017-01-25T18:06:29.742Z,0
2017-01-25T18:07:43.451Z,0
2017-01-25T18:08:57.385Z,0
2017-01-25T18:10:11.363Z,0
2017-01-25T18:11:25.200Z,0
2017-01-25T18:12:38.717Z,0
2017-01-25T18:13:52.658Z,0
2017-01-25T18:15:06.260Z,0
2017-01-25T18:16:20.069Z,0
2017-01-25T18:17:33.682Z,0